Aérodrome :
LOGIN :

S'inscrire | Disclaimer

   EN    FR    IT 

 










Légende :    VFR   VFR Marginal   IFR   IFR Intensif   IFR Très Intensif
Visi : 
Plafond : 
>= 8 km
>= 3000ft
5 à 8 km
1000 à 3000 ft
1500m à 5 km
500 à 1000 ft
800 à 1500m
200 à 500 ft
< 800m
< 200 ft
Symboles :   Orages  Brouillard  Fortes neiges  Fortes précipitations  Vent > 20 kt
SIGMETs :   Divers  Orages  Givrage  Turbulence  Onde Orograph.  Cendres Volcan.







- Altitude de l'aérodrome : 3 ft
- Code IATA : LWR


EHLW - Leuuwarden Air Base

DERNIER METAR :
  • 190325Z AUTO 18008KT 150V230 4500 BR OVC027 02/M00 Q1020 GRN

METARs EXPIRÉS :
  • 190255Z AUTO 18006KT 150V210 4600 BR SCT042 BKN047 OVC070 02/M00 Q1020 GRN
  • 190239Z AUTO 18006KT 150V210 4200 BR FEW046 BKN071 OVC110 02/M00 Q1020 GRN
  • 190225Z AUTO 18007KT 150V220 3700 BR BKN035 BKN047 OVC120 02/M00 Q1020 GRN
  • 190219Z AUTO 18007KT 150V210 3600 R23/P3000N BR SCT035 BKN047 OVC120 01/M00 Q1020 YLO
  • 190155Z AUTO 17006KT 150V210 3900 BR FEW028 SCT035 BKN046 01/M00 Q1020 GRN
  • 190125Z AUTO 17005KT 3800 BR FEW029 OVC032 01/M00 Q1021 GRN
  • 190055Z AUTO 17005KT 4300 BR BKN029 BKN032 OVC130 01/M00 Q1021 GRN

Prévision TAF périmée.
Pas de NOTAMs connus pour ce terrain.



MET'MAP, la Météo Aéronautique d'un coup d'oeil ! - Copyright ORBIFLY Décembre 2007 - Disclaimer

ORBIFLY MET'MAP TEAM :

Programmation & Développement : Alexandra Zaïnal
Conception & Développement : Baudouin d'Aumeries
Co-Programmation & Développement : Marc-Olivier Méhu
Soutien technique & logistique : Manuel Goepfert

Contact : metmap@orbifly.com




SOURCES & CREDITS :

   NOAA